sensor_id;sensor_type;location;lat;lon;timestamp;P1;durP1;ratioP1;P2;durP2;ratioP2
48578;SDS011;34357;51.948;6.132;2022-10-29T00:00:02;24.30;;;7.80;;
48578;SDS011;34357;51.948;6.132;2022-10-29T00:02:33;29.92;;;7.70;;
48578;SDS011;34357;51.948;6.132;2022-10-29T00:04:59;37.13;;;8.30;;
48578;SDS011;34357;51.948;6.132;2022-10-29T00:07:24;30.95;;;8.73;;
48578;SDS011;34357;51.948;6.132;2022-10-29T00:09:50;31.67;;;9.25;;
48578;SDS011;34357;51.948;6.132;2022-10-29T00:12:16;41.42;;;10.40;;
48578;SDS011;34357;51.948;6.132;2022-10-29T00:14:41;26.70;;;10.02;;
48578;SDS011;34357;51.948;6.132;2022-10-29T00:17:07;37.38;;;11.35;;
48578;SDS011;34357;51.948;6.132;2022-10-29T00:19:33;35.00;;;10.27;;
48578;SDS011;34357;51.948;6.132;2022-10-29T00:21:58;25.33;;;9.88;;
48578;SDS011;34357;51.948;6.132;2022-10-29T00:24:24;34.25;;;10.98;;
48578;SDS011;34357;51.948;6.132;2022-10-29T00:26:50;25.23;;;9.80;;
48578;SDS011;34357;51.948;6.132;2022-10-29T00:29:15;27.50;;;10.15;;
48578;SDS011;34357;51.948;6.132;2022-10-29T00:31:41;34.22;;;10.23;;
48578;SDS011;34357;51.948;6.132;2022-10-29T00:34:07;22.15;;;9.00;;
48578;SDS011;34357;51.948;6.132;2022-10-29T00:36:32;32.35;;;9.77;;
48578;SDS011;34357;51.948;6.132;2022-10-29T00:38:58;27.70;;;9.68;;
48578;SDS011;34357;51.948;6.132;2022-10-29T00:41:27;28.73;;;10.10;;
48578;SDS011;34357;51.948;6.132;2022-10-29T00:46:38;27.40;;;8.85;;
48578;SDS011;34357;51.948;6.132;2022-10-29T00:49:09;37.58;;;9.05;;
48578;SDS011;34357;51.948;6.132;2022-10-29T00:51:35;25.65;;;9.13;;
48578;SDS011;34357;51.948;6.132;2022-10-29T00:54:05;31.42;;;8.57;;
48578;SDS011;34357;51.948;6.132;2022-10-29T00:56:35;23.17;;;9.32;;
48578;SDS011;34357;51.948;6.132;2022-10-29T00:59:07;29.42;;;9.75;;
48578;SDS011;34357;51.948;6.132;2022-10-29T01:01:34;28.75;;;9.18;;
48578;SDS011;34357;51.948;6.132;2022-10-29T01:04:00;25.95;;;9.13;;
48578;SDS011;34357;51.948;6.132;2022-10-29T01:06:27;25.80;;;8.68;;
48578;SDS011;34357;51.948;6.132;2022-10-29T01:08:54;28.35;;;9.30;;
48578;SDS011;34357;51.948;6.132;2022-10-29T01:11:34;20.35;;;8.13;;
48578;SDS011;34357;51.948;6.132;2022-10-29T01:19:56;32.25;;;10.63;;
48578;SDS011;34357;51.948;6.132;2022-10-29T01:28:57;25.92;;;9.25;;
48578;SDS011;34357;51.948;6.132;2022-10-29T01:31:17;31.23;;;10.07;;
48578;SDS011;34357;51.948;6.132;2022-10-29T01:33:51;30.33;;;9.50;;
48578;SDS011;34357;51.948;6.132;2022-10-29T01:36:29;34.33;;;10.07;;
48578;SDS011;34357;51.948;6.132;2022-10-29T01:39:20;27.60;;;10.07;;
48578;SDS011;34357;51.948;6.132;2022-10-29T01:42:11;29.00;;;9.93;;
48578;SDS011;34357;51.948;6.132;2022-10-29T01:44:53;25.80;;;9.90;;
48578;SDS011;34357;51.948;6.132;2022-10-29T01:47:44;27.40;;;9.13;;
48578;SDS011;34357;51.948;6.132;2022-10-29T01:50:14;24.92;;;9.85;;
48578;SDS011;34357;51.948;6.132;2022-10-29T01:52:45;31.00;;;10.10;;
48578;SDS011;34357;51.948;6.132;2022-10-29T01:55:17;31.75;;;10.55;;
48578;SDS011;34357;51.948;6.132;2022-10-29T01:57:44;27.58;;;10.43;;
48578;SDS011;34357;51.948;6.132;2022-10-29T02:00:11;34.00;;;10.60;;
48578;SDS011;34357;51.948;6.132;2022-10-29T02:05:30;32.55;;;10.20;;
48578;SDS011;34357;51.948;6.132;2022-10-29T02:08:20;30.58;;;10.10;;
48578;SDS011;34357;51.948;6.132;2022-10-29T02:11:10;30.20;;;12.07;;
48578;SDS011;34357;51.948;6.132;2022-10-29T02:13:45;44.80;;;12.82;;
48578;SDS011;34357;51.948;6.132;2022-10-29T02:16:42;34.60;;;13.00;;
48578;SDS011;34357;51.948;6.132;2022-10-29T02:19:08;46.25;;;15.23;;
48578;SDS011;34357;51.948;6.132;2022-10-29T02:21:34;35.53;;;13.95;;
48578;SDS011;34357;51.948;6.132;2022-10-29T02:24:00;32.90;;;13.05;;
48578;SDS011;34357;51.948;6.132;2022-10-29T02:26:25;37.67;;;13.77;;
48578;SDS011;34357;51.948;6.132;2022-10-29T02:28:51;40.30;;;14.55;;
48578;SDS011;34357;51.948;6.132;2022-10-29T02:31:17;42.40;;;16.33;;
48578;SDS011;34357;51.948;6.132;2022-10-29T02:33:42;39.22;;;15.82;;
48578;SDS011;34357;51.948;6.132;2022-10-29T02:36:08;46.00;;;17.00;;
48578;SDS011;34357;51.948;6.132;2022-10-29T02:38:34;40.20;;;15.32;;
48578;SDS011;34357;51.948;6.132;2022-10-29T02:40:59;33.70;;;14.45;;
48578;SDS011;34357;51.948;6.132;2022-10-29T02:43:25;35.97;;;15.02;;
48578;SDS011;34357;51.948;6.132;2022-10-29T02:46:08;33.63;;;15.27;;
48578;SDS011;34357;51.948;6.132;2022-10-29T02:48:44;28.73;;;13.00;;
48578;SDS011;34357;51.948;6.132;2022-10-29T02:51:10;28.65;;;13.40;;
48578;SDS011;34357;51.948;6.132;2022-10-29T02:53:36;27.70;;;12.90;;
48578;SDS011;34357;51.948;6.132;2022-10-29T02:56:03;36.22;;;14.13;;
48578;SDS011;34357;51.948;6.132;2022-10-29T02:58:30;34.05;;;14.50;;
48578;SDS011;34357;51.948;6.132;2022-10-29T03:00:55;27.15;;;12.63;;
48578;SDS011;34357;51.948;6.132;2022-10-29T03:03:21;26.95;;;13.23;;
48578;SDS011;34357;51.948;6.132;2022-10-29T03:05:47;27.83;;;13.15;;
48578;SDS011;34357;51.948;6.132;2022-10-29T03:08:13;28.98;;;13.30;;
48578;SDS011;34357;51.948;6.132;2022-10-29T03:10:38;28.08;;;13.40;;
48578;SDS011;34357;51.948;6.132;2022-10-29T03:13:04;28.40;;;12.55;;
48578;SDS011;34357;51.948;6.132;2022-10-29T03:15:30;36.75;;;13.15;;
48578;SDS011;34357;51.948;6.132;2022-10-29T03:17:55;37.33;;;14.25;;
48578;SDS011;34357;51.948;6.132;2022-10-29T03:20:21;30.23;;;13.13;;
48578;SDS011;34357;51.948;6.132;2022-10-29T03:22:47;24.10;;;12.10;;
48578;SDS011;34357;51.948;6.132;2022-10-29T03:25:12;25.33;;;12.85;;
48578;SDS011;34357;51.948;6.132;2022-10-29T03:27:41;30.67;;;12.65;;
48578;SDS011;34357;51.948;6.132;2022-10-29T03:30:08;25.23;;;13.77;;
48578;SDS011;34357;51.948;6.132;2022-10-29T03:32:41;26.98;;;12.30;;
48578;SDS011;34357;51.948;6.132;2022-10-29T03:35:09;33.92;;;14.70;;
48578;SDS011;34357;51.948;6.132;2022-10-29T03:37:35;28.92;;;14.73;;
48578;SDS011;34357;51.948;6.132;2022-10-29T03:40:02;28.85;;;14.23;;
48578;SDS011;34357;51.948;6.132;2022-10-29T03:42:28;28.67;;;15.15;;
48578;SDS011;34357;51.948;6.132;2022-10-29T03:44:58;29.10;;;14.40;;
48578;SDS011;34357;51.948;6.132;2022-10-29T03:47:25;31.50;;;13.95;;
48578;SDS011;34357;51.948;6.132;2022-10-29T03:49:52;31.45;;;13.93;;
48578;SDS011;34357;51.948;6.132;2022-10-29T03:52:18;30.90;;;14.75;;
48578;SDS011;34357;51.948;6.132;2022-10-29T03:54:44;28.52;;;15.35;;
48578;SDS011;34357;51.948;6.132;2022-10-29T03:57:09;36.05;;;16.08;;
48578;SDS011;34357;51.948;6.132;2022-10-29T03:59:35;31.25;;;15.65;;
48578;SDS011;34357;51.948;6.132;2022-10-29T04:02:01;38.58;;;16.33;;
48578;SDS011;34357;51.948;6.132;2022-10-29T04:04:27;32.60;;;17.35;;
48578;SDS011;34357;51.948;6.132;2022-10-29T04:06:52;29.77;;;16.60;;
48578;SDS011;34357;51.948;6.132;2022-10-29T04:09:18;30.60;;;17.50;;
48578;SDS011;34357;51.948;6.132;2022-10-29T04:11:44;30.25;;;16.77;;
48578;SDS011;34357;51.948;6.132;2022-10-29T04:14:09;39.00;;;18.20;;
48578;SDS011;34357;51.948;6.132;2022-10-29T04:16:35;36.05;;;18.08;;
48578;SDS011;34357;51.948;6.132;2022-10-29T04:19:01;41.22;;;18.92;;
48578;SDS011;34357;51.948;6.132;2022-10-29T04:21:27;31.50;;;18.70;;
48578;SDS011;34357;51.948;6.132;2022-10-29T04:23:53;34.15;;;17.67;;
48578;SDS011;34357;51.948;6.132;2022-10-29T04:26:18;38.17;;;18.20;;
48578;SDS011;34357;51.948;6.132;2022-10-29T04:28:47;31.50;;;17.92;;
48578;SDS011;34357;51.948;6.132;2022-10-29T04:31:14;25.65;;;15.05;;
48578;SDS011;34357;51.948;6.132;2022-10-29T04:33:40;27.92;;;14.95;;
48578;SDS011;34357;51.948;6.132;2022-10-29T04:36:05;31.25;;;17.13;;
48578;SDS011;34357;51.948;6.132;2022-10-29T04:38:32;24.10;;;15.00;;
48578;SDS011;34357;51.948;6.132;2022-10-29T04:40:58;25.63;;;13.75;;
48578;SDS011;34357;51.948;6.132;2022-10-29T04:43:24;21.02;;;12.80;;
48578;SDS011;34357;51.948;6.132;2022-10-29T04:45:51;20.58;;;12.57;;
48578;SDS011;34357;51.948;6.132;2022-10-29T04:48:18;22.63;;;11.77;;
48578;SDS011;34357;51.948;6.132;2022-10-29T04:50:44;17.85;;;11.82;;
48578;SDS011;34357;51.948;6.132;2022-10-29T04:53:09;16.02;;;10.45;;
48578;SDS011;34357;51.948;6.132;2022-10-29T04:55:36;13.85;;;11.57;;
48578;SDS011;34357;51.948;6.132;2022-10-29T04:58:03;24.13;;;13.73;;
48578;SDS011;34357;51.948;6.132;2022-10-29T05:00:29;16.02;;;11.23;;
48578;SDS011;34357;51.948;6.132;2022-10-29T05:02:55;18.30;;;11.98;;
48578;SDS011;34357;51.948;6.132;2022-10-29T05:05:21;18.20;;;11.80;;
48578;SDS011;34357;51.948;6.132;2022-10-29T05:07:46;27.27;;;12.80;;
48578;SDS011;34357;51.948;6.132;2022-10-29T05:10:12;21.88;;;12.50;;
48578;SDS011;34357;51.948;6.132;2022-10-29T05:12:38;21.73;;;11.95;;
48578;SDS011;34357;51.948;6.132;2022-10-29T05:15:04;19.65;;;12.35;;
48578;SDS011;34357;51.948;6.132;2022-10-29T05:17:31;23.80;;;13.77;;
48578;SDS011;34357;51.948;6.132;2022-10-29T05:20:00;19.88;;;12.80;;
48578;SDS011;34357;51.948;6.132;2022-10-29T05:22:26;22.98;;;13.93;;
48578;SDS011;34357;51.948;6.132;2022-10-29T05:24:52;22.60;;;13.77;;
48578;SDS011;34357;51.948;6.132;2022-10-29T05:27:17;27.52;;;14.60;;
48578;SDS011;34357;51.948;6.132;2022-10-29T05:29:43;31.20;;;14.70;;
48578;SDS011;34357;51.948;6.132;2022-10-29T05:32:09;30.08;;;14.65;;
48578;SDS011;34357;51.948;6.132;2022-10-29T05:34:34;25.48;;;14.00;;
48578;SDS011;34357;51.948;6.132;2022-10-29T05:37:00;26.20;;;14.00;;
48578;SDS011;34357;51.948;6.132;2022-10-29T05:39:25;24.15;;;14.27;;
48578;SDS011;34357;51.948;6.132;2022-10-29T05:41:51;19.85;;;13.10;;
48578;SDS011;34357;51.948;6.132;2022-10-29T05:44:17;27.75;;;16.17;;
48578;SDS011;34357;51.948;6.132;2022-10-29T05:46:42;27.65;;;16.27;;
48578;SDS011;34357;51.948;6.132;2022-10-29T05:49:08;24.50;;;15.10;;
48578;SDS011;34357;51.948;6.132;2022-10-29T05:51:36;27.88;;;15.50;;
48578;SDS011;34357;51.948;6.132;2022-10-29T05:54:01;25.20;;;15.40;;
48578;SDS011;34357;51.948;6.132;2022-10-29T05:56:27;25.27;;;14.73;;
48578;SDS011;34357;51.948;6.132;2022-10-29T05:58:53;22.77;;;13.70;;
48578;SDS011;34357;51.948;6.132;2022-10-29T06:01:19;31.17;;;16.17;;
48578;SDS011;34357;51.948;6.132;2022-10-29T06:03:44;25.58;;;15.50;;
48578;SDS011;34357;51.948;6.132;2022-10-29T06:06:10;20.20;;;13.45;;
48578;SDS011;34357;51.948;6.132;2022-10-29T06:08:36;23.15;;;13.27;;
48578;SDS011;34357;51.948;6.132;2022-10-29T06:11:02;22.75;;;14.52;;
48578;SDS011;34357;51.948;6.132;2022-10-29T06:13:28;21.30;;;13.13;;
48578;SDS011;34357;51.948;6.132;2022-10-29T06:15:57;24.30;;;14.60;;
48578;SDS011;34357;51.948;6.132;2022-10-29T06:18:24;21.63;;;14.57;;
48578;SDS011;34357;51.948;6.132;2022-10-29T06:20:51;27.25;;;14.35;;
48578;SDS011;34357;51.948;6.132;2022-10-29T06:23:18;20.10;;;13.68;;
48578;SDS011;34357;51.948;6.132;2022-10-29T06:25:44;20.98;;;13.65;;
48578;SDS011;34357;51.948;6.132;2022-10-29T06:28:11;19.95;;;13.38;;
48578;SDS011;34357;51.948;6.132;2022-10-29T06:30:39;24.48;;;13.57;;
48578;SDS011;34357;51.948;6.132;2022-10-29T06:33:05;20.27;;;14.00;;
48578;SDS011;34357;51.948;6.132;2022-10-29T06:35:32;26.55;;;13.75;;
48578;SDS011;34357;51.948;6.132;2022-10-29T06:37:58;19.42;;;14.70;;
48578;SDS011;34357;51.948;6.132;2022-10-29T06:40:24;21.50;;;12.82;;
48578;SDS011;34357;51.948;6.132;2022-10-29T06:42:57;20.77;;;12.77;;
48578;SDS011;34357;51.948;6.132;2022-10-29T06:45:24;18.83;;;11.95;;
48578;SDS011;34357;51.948;6.132;2022-10-29T06:47:50;16.83;;;11.55;;
48578;SDS011;34357;51.948;6.132;2022-10-29T06:50:16;19.48;;;12.30;;
48578;SDS011;34357;51.948;6.132;2022-10-29T06:52:42;18.75;;;11.98;;
48578;SDS011;34357;51.948;6.132;2022-10-29T06:55:08;19.92;;;11.70;;
48578;SDS011;34357;51.948;6.132;2022-10-29T06:57:34;18.30;;;12.13;;
48578;SDS011;34357;51.948;6.132;2022-10-29T07:00:00;19.10;;;11.73;;
48578;SDS011;34357;51.948;6.132;2022-10-29T07:02:26;15.95;;;11.07;;
48578;SDS011;34357;51.948;6.132;2022-10-29T07:04:51;26.33;;;12.20;;
48578;SDS011;34357;51.948;6.132;2022-10-29T07:07:17;16.92;;;11.10;;
48578;SDS011;34357;51.948;6.132;2022-10-29T07:09:43;15.60;;;10.82;;
48578;SDS011;34357;51.948;6.132;2022-10-29T07:12:09;15.77;;;10.85;;
48578;SDS011;34357;51.948;6.132;2022-10-29T07:14:35;17.42;;;10.68;;
48578;SDS011;34357;51.948;6.132;2022-10-29T07:17:01;17.73;;;10.68;;
48578;SDS011;34357;51.948;6.132;2022-10-29T07:19:26;18.23;;;10.50;;
48578;SDS011;34357;51.948;6.132;2022-10-29T07:21:52;15.82;;;10.30;;
48578;SDS011;34357;51.948;6.132;2022-10-29T07:24:18;16.55;;;11.23;;
48578;SDS011;34357;51.948;6.132;2022-10-29T07:26:43;15.32;;;10.77;;
48578;SDS011;34357;51.948;6.132;2022-10-29T07:29:09;17.63;;;11.48;;
48578;SDS011;34357;51.948;6.132;2022-10-29T07:31:35;18.63;;;11.43;;
48578;SDS011;34357;51.948;6.132;2022-10-29T07:34:01;16.70;;;12.23;;
48578;SDS011;34357;51.948;6.132;2022-10-29T07:36:30;20.45;;;12.95;;
48578;SDS011;34357;51.948;6.132;2022-10-29T07:38:55;23.83;;;13.70;;
48578;SDS011;34357;51.948;6.132;2022-10-29T07:41:21;27.35;;;16.67;;
48578;SDS011;34357;51.948;6.132;2022-10-29T07:43:47;28.98;;;16.80;;
48578;SDS011;34357;51.948;6.132;2022-10-29T07:46:12;25.17;;;15.32;;
48578;SDS011;34357;51.948;6.132;2022-10-29T07:48:38;27.48;;;14.68;;
48578;SDS011;34357;51.948;6.132;2022-10-29T07:51:04;25.25;;;14.10;;
48578;SDS011;34357;51.948;6.132;2022-10-29T07:53:29;25.48;;;14.70;;
48578;SDS011;34357;51.948;6.132;2022-10-29T07:55:55;22.20;;;14.40;;
48578;SDS011;34357;51.948;6.132;2022-10-29T07:58:21;28.50;;;14.82;;
48578;SDS011;34357;51.948;6.132;2022-10-29T08:00:48;27.30;;;14.65;;
48578;SDS011;34357;51.948;6.132;2022-10-29T08:03:14;26.75;;;15.88;;
48578;SDS011;34357;51.948;6.132;2022-10-29T08:05:40;33.75;;;16.10;;
48578;SDS011;34357;51.948;6.132;2022-10-29T08:08:06;28.33;;;15.38;;
48578;SDS011;34357;51.948;6.132;2022-10-29T08:10:34;27.30;;;15.43;;
48578;SDS011;34357;51.948;6.132;2022-10-29T08:13:00;30.80;;;16.30;;
48578;SDS011;34357;51.948;6.132;2022-10-29T08:15:27;27.17;;;16.52;;
48578;SDS011;34357;51.948;6.132;2022-10-29T08:17:54;30.33;;;16.05;;
48578;SDS011;34357;51.948;6.132;2022-10-29T08:20:21;32.70;;;17.70;;
48578;SDS011;34357;51.948;6.132;2022-10-29T08:22:49;30.77;;;18.08;;
48578;SDS011;34357;51.948;6.132;2022-10-29T08:25:15;24.42;;;16.20;;
48578;SDS011;34357;51.948;6.132;2022-10-29T08:27:40;31.67;;;16.27;;
48578;SDS011;34357;51.948;6.132;2022-10-29T08:30:07;27.73;;;16.77;;
48578;SDS011;34357;51.948;6.132;2022-10-29T08:32:35;35.08;;;18.30;;
48578;SDS011;34357;51.948;6.132;2022-10-29T08:35:01;38.45;;;17.90;;
48578;SDS011;34357;51.948;6.132;2022-10-29T08:37:27;31.98;;;17.83;;
48578;SDS011;34357;51.948;6.132;2022-10-29T08:39:53;25.25;;;16.42;;
48578;SDS011;34357;51.948;6.132;2022-10-29T08:47:34;26.40;;;15.48;;
48578;SDS011;34357;51.948;6.132;2022-10-29T08:53:08;28.25;;;14.23;;
48578;SDS011;34357;51.948;6.132;2022-10-29T08:55:40;33.35;;;15.02;;
48578;SDS011;34357;51.948;6.132;2022-10-29T09:01:01;26.38;;;14.63;;
48578;SDS011;34357;51.948;6.132;2022-10-29T09:03:27;26.17;;;13.88;;
48578;SDS011;34357;51.948;6.132;2022-10-29T09:05:59;27.67;;;14.00;;
48578;SDS011;34357;51.948;6.132;2022-10-29T09:11:41;32.28;;;14.30;;
48578;SDS011;34357;51.948;6.132;2022-10-29T09:17:18;23.83;;;13.35;;
48578;SDS011;34357;51.948;6.132;2022-10-29T09:20:29;35.90;;;14.07;;
48578;SDS011;34357;51.948;6.132;2022-10-29T09:23:25;23.95;;;13.52;;
48578;SDS011;34357;51.948;6.132;2022-10-29T09:26:06;33.00;;;14.15;;
48578;SDS011;34357;51.948;6.132;2022-10-29T09:28:53;30.83;;;13.90;;
48578;SDS011;34357;51.948;6.132;2022-10-29T09:31:39;22.98;;;12.88;;
48578;SDS011;34357;51.948;6.132;2022-10-29T09:34:12;27.67;;;13.00;;
48578;SDS011;34357;51.948;6.132;2022-10-29T09:36:46;26.75;;;13.07;;
48578;SDS011;34357;51.948;6.132;2022-10-29T09:39:13;26.30;;;13.23;;
48578;SDS011;34357;51.948;6.132;2022-10-29T09:41:40;30.35;;;13.50;;
48578;SDS011;34357;51.948;6.132;2022-10-29T09:44:21;23.60;;;11.32;;
48578;SDS011;34357;51.948;6.132;2022-10-29T09:47:20;31.65;;;12.60;;
48578;SDS011;34357;51.948;6.132;2022-10-29T09:52:44;27.65;;;12.15;;
48578;SDS011;34357;51.948;6.132;2022-10-29T09:55:17;20.75;;;11.82;;
48578;SDS011;34357;51.948;6.132;2022-10-29T09:57:44;25.27;;;11.80;;
48578;SDS011;34357;51.948;6.132;2022-10-29T10:00:25;26.80;;;12.10;;
48578;SDS011;34357;51.948;6.132;2022-10-29T10:02:56;24.35;;;11.90;;
48578;SDS011;34357;51.948;6.132;2022-10-29T10:05:29;25.30;;;11.30;;
48578;SDS011;34357;51.948;6.132;2022-10-29T10:10:56;21.85;;;12.35;;
48578;SDS011;34357;51.948;6.132;2022-10-29T10:13:24;26.15;;;11.70;;
48578;SDS011;34357;51.948;6.132;2022-10-29T10:15:57;26.95;;;11.93;;
48578;SDS011;34357;51.948;6.132;2022-10-29T10:18:25;25.25;;;11.52;;
48578;SDS011;34357;51.948;6.132;2022-10-29T10:29:12;21.52;;;11.35;;
48578;SDS011;34357;51.948;6.132;2022-10-29T10:31:43;26.15;;;10.50;;
48578;SDS011;34357;51.948;6.132;2022-10-29T10:34:15;26.20;;;10.38;;
48578;SDS011;34357;51.948;6.132;2022-10-29T10:36:44;36.95;;;11.43;;
48578;SDS011;34357;51.948;6.132;2022-10-29T10:39:19;26.27;;;10.90;;
48578;SDS011;34357;51.948;6.132;2022-10-29T10:41:48;25.90;;;9.65;;
48578;SDS011;34357;51.948;6.132;2022-10-29T10:44:15;20.15;;;9.40;;
48578;SDS011;34357;51.948;6.132;2022-10-29T10:46:43;27.42;;;10.25;;
48578;SDS011;34357;51.948;6.132;2022-10-29T10:51:35;18.48;;;9.55;;
48578;SDS011;34357;51.948;6.132;2022-10-29T10:54:05;19.88;;;9.10;;
48578;SDS011;34357;51.948;6.132;2022-10-29T10:56:51;23.73;;;8.90;;
48578;SDS011;34357;51.948;6.132;2022-10-29T10:59:22;21.73;;;8.45;;
48578;SDS011;34357;51.948;6.132;2022-10-29T11:04:20;24.55;;;8.50;;
48578;SDS011;34357;51.948;6.132;2022-10-29T11:06:52;24.38;;;8.35;;
48578;SDS011;34357;51.948;6.132;2022-10-29T11:09:24;19.45;;;9.45;;
48578;SDS011;34357;51.948;6.132;2022-10-29T11:14:32;18.73;;;8.35;;
48578;SDS011;34357;51.948;6.132;2022-10-29T11:19:53;24.02;;;8.25;;
48578;SDS011;34357;51.948;6.132;2022-10-29T11:22:31;19.65;;;7.85;;
48578;SDS011;34357;51.948;6.132;2022-10-29T11:25:30;17.65;;;7.75;;
48578;SDS011;34357;51.948;6.132;2022-10-29T11:30:47;20.10;;;7.35;;
48578;SDS011;34357;51.948;6.132;2022-10-29T11:35:49;18.35;;;6.75;;
48578;SDS011;34357;51.948;6.132;2022-10-29T11:38:26;20.33;;;6.97;;
48578;SDS011;34357;51.948;6.132;2022-10-29T11:41:03;21.65;;;6.72;;
48578;SDS011;34357;51.948;6.132;2022-10-29T11:43:45;17.73;;;6.65;;
48578;SDS011;34357;51.948;6.132;2022-10-29T11:58:55;18.10;;;6.38;;
48578;SDS011;34357;51.948;6.132;2022-10-29T12:04:34;23.17;;;7.03;;
48578;SDS011;34357;51.948;6.132;2022-10-29T12:07:17;20.92;;;7.45;;
48578;SDS011;34357;51.948;6.132;2022-10-29T12:15:13;21.13;;;6.65;;
48578;SDS011;34357;51.948;6.132;2022-10-29T12:23:01;16.55;;;7.25;;
48578;SDS011;34357;51.948;6.132;2022-10-29T12:30:42;18.98;;;7.10;;
48578;SDS011;34357;51.948;6.132;2022-10-29T12:33:27;20.23;;;6.55;;
48578;SDS011;34357;51.948;6.132;2022-10-29T12:36:07;22.23;;;7.03;;
48578;SDS011;34357;51.948;6.132;2022-10-29T12:39:05;18.50;;;6.55;;
48578;SDS011;34357;51.948;6.132;2022-10-29T12:41:43;23.27;;;6.80;;
48578;SDS011;34357;51.948;6.132;2022-10-29T12:50:13;18.33;;;7.20;;
48578;SDS011;34357;51.948;6.132;2022-10-29T12:52:56;16.33;;;6.85;;
48578;SDS011;34357;51.948;6.132;2022-10-29T12:55:34;18.80;;;7.18;;
48578;SDS011;34357;51.948;6.132;2022-10-29T13:01:04;13.07;;;5.97;;
48578;SDS011;34357;51.948;6.132;2022-10-29T13:11:45;19.73;;;6.70;;
48578;SDS011;34357;51.948;6.132;2022-10-29T13:14:20;20.10;;;6.35;;
48578;SDS011;34357;51.948;6.132;2022-10-29T13:16:53;30.50;;;6.88;;
48578;SDS011;34357;51.948;6.132;2022-10-29T13:19:22;18.80;;;6.80;;
48578;SDS011;34357;51.948;6.132;2022-10-29T13:22:07;20.30;;;6.43;;
48578;SDS011;34357;51.948;6.132;2022-10-29T13:30:36;23.85;;;6.10;;
48578;SDS011;34357;51.948;6.132;2022-10-29T13:44:09;19.27;;;6.75;;
48578;SDS011;34357;51.948;6.132;2022-10-29T13:49:39;15.68;;;6.10;;
48578;SDS011;34357;51.948;6.132;2022-10-29T13:54:36;25.00;;;7.68;;
48578;SDS011;34357;51.948;6.132;2022-10-29T13:57:30;19.23;;;6.72;;
48578;SDS011;34357;51.948;6.132;2022-10-29T14:00:04;16.13;;;6.45;;
48578;SDS011;34357;51.948;6.132;2022-10-29T14:10:31;16.67;;;6.20;;
48578;SDS011;34357;51.948;6.132;2022-10-29T14:13:05;19.73;;;5.80;;
48578;SDS011;34357;51.948;6.132;2022-10-29T14:15:35;17.13;;;6.53;;
48578;SDS011;34357;51.948;6.132;2022-10-29T14:21:12;17.02;;;6.53;;
48578;SDS011;34357;51.948;6.132;2022-10-29T14:26:31;18.70;;;6.07;;
48578;SDS011;34357;51.948;6.132;2022-10-29T14:32:11;22.65;;;6.78;;
48578;SDS011;34357;51.948;6.132;2022-10-29T14:34:40;18.67;;;6.22;;
48578;SDS011;34357;51.948;6.132;2022-10-29T14:37:07;14.48;;;6.35;;
48578;SDS011;34357;51.948;6.132;2022-10-29T14:39:46;25.17;;;6.60;;
48578;SDS011;34357;51.948;6.132;2022-10-29T14:42:16;22.48;;;6.28;;
48578;SDS011;34357;51.948;6.132;2022-10-29T14:44:52;16.00;;;6.00;;
48578;SDS011;34357;51.948;6.132;2022-10-29T14:47:35;17.30;;;7.05;;
48578;SDS011;34357;51.948;6.132;2022-10-29T14:50:03;14.48;;;5.60;;
48578;SDS011;34357;51.948;6.132;2022-10-29T14:52:38;16.50;;;6.07;;
48578;SDS011;34357;51.948;6.132;2022-10-29T14:55:13;16.27;;;6.28;;
48578;SDS011;34357;51.948;6.132;2022-10-29T14:57:44;20.13;;;6.78;;
48578;SDS011;34357;51.948;6.132;2022-10-29T15:00:21;16.65;;;6.57;;
48578;SDS011;34357;51.948;6.132;2022-10-29T15:02:49;18.88;;;6.30;;
48578;SDS011;34357;51.948;6.132;2022-10-29T15:10:50;21.13;;;6.72;;
48578;SDS011;34357;51.948;6.132;2022-10-29T15:18:27;19.67;;;6.80;;
48578;SDS011;34357;51.948;6.132;2022-10-29T15:20:54;16.38;;;6.50;;
48578;SDS011;34357;51.948;6.132;2022-10-29T15:23:22;22.80;;;6.40;;
48578;SDS011;34357;51.948;6.132;2022-10-29T15:26:04;18.98;;;5.95;;
48578;SDS011;34357;51.948;6.132;2022-10-29T15:28:36;16.25;;;5.95;;
48578;SDS011;34357;51.948;6.132;2022-10-29T15:31:05;22.05;;;6.65;;
48578;SDS011;34357;51.948;6.132;2022-10-29T15:33:31;23.17;;;7.30;;
48578;SDS011;34357;51.948;6.132;2022-10-29T15:36:00;13.10;;;5.88;;
48578;SDS011;34357;51.948;6.132;2022-10-29T15:43:33;15.50;;;6.07;;
48578;SDS011;34357;51.948;6.132;2022-10-29T15:46:19;18.60;;;6.40;;
48578;SDS011;34357;51.948;6.132;2022-10-29T15:48:52;20.48;;;6.40;;
48578;SDS011;34357;51.948;6.132;2022-10-29T15:51:24;21.88;;;7.38;;
48578;SDS011;34357;51.948;6.132;2022-10-29T15:53:53;24.23;;;6.75;;
48578;SDS011;34357;51.948;6.132;2022-10-29T15:56:21;17.25;;;7.22;;
48578;SDS011;34357;51.948;6.132;2022-10-29T15:58:47;16.85;;;6.60;;
48578;SDS011;34357;51.948;6.132;2022-10-29T16:01:14;17.05;;;7.18;;
48578;SDS011;34357;51.948;6.132;2022-10-29T16:03:41;19.05;;;8.05;;
48578;SDS011;34357;51.948;6.132;2022-10-29T16:06:07;19.38;;;7.80;;
48578;SDS011;34357;51.948;6.132;2022-10-29T16:11:05;21.42;;;7.38;;
48578;SDS011;34357;51.948;6.132;2022-10-29T16:13:33;20.00;;;7.80;;
48578;SDS011;34357;51.948;6.132;2022-10-29T16:15:59;26.58;;;8.13;;
48578;SDS011;34357;51.948;6.132;2022-10-29T16:18:25;22.15;;;8.02;;
48578;SDS011;34357;51.948;6.132;2022-10-29T16:20:58;20.83;;;7.82;;
48578;SDS011;34357;51.948;6.132;2022-10-29T16:23:28;23.75;;;8.43;;
48578;SDS011;34357;51.948;6.132;2022-10-29T16:25:54;24.35;;;8.82;;
48578;SDS011;34357;51.948;6.132;2022-10-29T16:28:20;20.30;;;7.70;;
48578;SDS011;34357;51.948;6.132;2022-10-29T16:30:53;19.33;;;7.25;;
48578;SDS011;34357;51.948;6.132;2022-10-29T16:33:21;21.30;;;7.70;;
48578;SDS011;34357;51.948;6.132;2022-10-29T16:35:47;19.40;;;7.60;;
48578;SDS011;34357;51.948;6.132;2022-10-29T16:38:12;23.98;;;7.60;;
48578;SDS011;34357;51.948;6.132;2022-10-29T16:40:40;18.48;;;7.82;;
48578;SDS011;34357;51.948;6.132;2022-10-29T16:43:07;22.33;;;7.22;;
48578;SDS011;34357;51.948;6.132;2022-10-29T16:45:33;17.92;;;7.13;;
48578;SDS011;34357;51.948;6.132;2022-10-29T16:47:59;23.13;;;6.80;;
48578;SDS011;34357;51.948;6.132;2022-10-29T16:50:25;16.58;;;6.78;;
48578;SDS011;34357;51.948;6.132;2022-10-29T16:52:56;22.52;;;6.78;;
48578;SDS011;34357;51.948;6.132;2022-10-29T16:55:23;20.13;;;6.97;;
48578;SDS011;34357;51.948;6.132;2022-10-29T16:57:50;17.65;;;7.38;;
48578;SDS011;34357;51.948;6.132;2022-10-29T17:00:15;17.65;;;6.35;;
48578;SDS011;34357;51.948;6.132;2022-10-29T17:02:41;19.05;;;6.78;;
48578;SDS011;34357;51.948;6.132;2022-10-29T17:05:08;16.10;;;6.72;;
48578;SDS011;34357;51.948;6.132;2022-10-29T17:07:34;19.98;;;6.90;;
48578;SDS011;34357;51.948;6.132;2022-10-29T17:10:00;16.30;;;7.35;;
48578;SDS011;34357;51.948;6.132;2022-10-29T17:12:26;21.55;;;6.53;;
48578;SDS011;34357;51.948;6.132;2022-10-29T17:14:52;22.30;;;6.82;;
48578;SDS011;34357;51.948;6.132;2022-10-29T17:17:18;21.20;;;6.97;;
48578;SDS011;34357;51.948;6.132;2022-10-29T17:19:43;22.92;;;7.47;;
48578;SDS011;34357;51.948;6.132;2022-10-29T17:22:09;19.77;;;6.63;;
48578;SDS011;34357;51.948;6.132;2022-10-29T17:24:38;24.80;;;8.00;;
48578;SDS011;34357;51.948;6.132;2022-10-29T17:27:04;24.20;;;7.22;;
48578;SDS011;34357;51.948;6.132;2022-10-29T17:29:29;21.10;;;7.20;;